Time;durP1;ratioP1;P1;durP2;ratioP2;P2;SDS_P1;SDS_P2;PMS_P1;PMS_P2;Temp;Humidity;BMP_temperature;BMP_pressure;BME280_temperature;BME280_humidity;BME280_pressure;Samples;Min_cycle;Max_cycle;Signal;HPM_P1;HPM_P2
2021/06/09 00:01:59;;;;;;;38.87;35.27;;;17.20;99.90;;;;;;5077736;28;20441;-78
2021/06/09 00:04:26;;;;;;;40.17;36.27;;;17.10;99.90;;;;;;5074316;28;20798;-79
2021/06/09 00:06:53;;;;;;;40.03;35.83;;;17.10;99.90;;;;;;5086119;28;20529;-79
2021/06/09 00:09:19;;;;;;;38.97;35.20;;;17.10;99.90;;;;;;5085926;28;20442;-78
2021/06/09 00:11:46;;;;;;;39.10;35.40;;;17.10;99.90;;;;;;5083207;28;20492;-79
2021/06/09 00:14:15;;;;;;;41.37;37.30;;;17.10;99.90;;;;;;5074637;28;20415;-78
2021/06/09 00:16:44;;;;;;;37.30;33.60;;;17.10;99.90;;;;;;5092241;28;20465;-78
2021/06/09 00:19:13;;;;;;;41.13;37.03;;;17.10;99.90;;;;;;5073820;28;20859;-78
2021/06/09 00:21:40;;;;;;;39.20;34.83;;;17.00;99.90;;;;;;5075015;28;20492;-78
2021/06/09 00:24:08;;;;;;;37.50;33.97;;;17.00;99.90;;;;;;5078583;28;20430;-78
2021/06/09 00:26:34;;;;;;;40.40;36.47;;;17.00;99.90;;;;;;5093549;28;20465;-78
2021/06/09 00:29:01;;;;;;;40.93;36.97;;;17.00;99.90;;;;;;5072195;28;20480;-78
2021/06/09 00:31:28;;;;;;;40.17;35.90;;;17.00;99.90;;;;;;5079330;28;21037;-78
2021/06/09 00:33:55;;;;;;;37.60;33.80;;;16.90;99.90;;;;;;5093050;28;20434;-79
2021/06/09 00:36:22;;;;;;;38.20;34.57;;;17.00;99.90;;;;;;5073887;28;20466;-78
2021/06/09 00:38:49;;;;;;;38.33;34.57;;;16.90;99.90;;;;;;5090294;28;20810;-78
2021/06/09 00:41:16;;;;;;;38.10;34.40;;;16.80;99.90;;;;;;5057247;28;20534;-78
2021/06/09 00:43:43;;;;;;;37.33;33.33;;;16.80;99.90;;;;;;5075133;28;20442;-79
2021/06/09 00:46:11;;;;;;;36.87;33.17;;;16.80;99.90;;;;;;5091213;28;20465;-78
2021/06/09 00:48:41;;;;;;;40.13;36.23;;;16.80;99.90;;;;;;5076551;28;20497;-78
2021/06/09 00:51:14;;;;;;;44.70;35.07;;;16.70;99.90;;;;;;5078658;28;20484;-79
2021/06/09 00:53:47;;;;;;;40.67;36.67;;;16.80;99.90;;;;;;5091445;28;20440;-78
2021/06/09 00:56:16;;;;;;;39.10;35.10;;;16.70;99.90;;;;;;5073061;28;20697;-79
2021/06/09 00:58:45;;;;;;;39.20;35.23;;;16.70;99.90;;;;;;5088402;28;20781;-79
2021/06/09 01:01:14;;;;;;;43.77;39.53;;;16.70;99.90;;;;;;5073309;28;20457;-78
2021/06/09 01:03:41;;;;;;;42.00;37.70;;;16.70;99.90;;;;;;5056434;28;20426;-78
2021/06/09 01:06:08;;;;;;;41.93;37.43;;;16.70;99.90;;;;;;5078680;28;20532;-79
2021/06/09 01:08:37;;;;;;;40.60;36.40;;;16.70;99.90;;;;;;5089183;28;20826;-78
2021/06/09 01:11:07;;;;;;;39.80;35.80;;;16.70;99.90;;;;;;5091376;28;21074;-79
2021/06/09 01:13:34;;;;;;;41.00;36.73;;;16.70;99.90;;;;;;5076857;28;20437;-78
2021/06/09 01:16:01;;;;;;;38.90;35.10;;;16.70;99.90;;;;;;5076689;28;20899;-79
2021/06/09 01:18:29;;;;;;;41.63;36.97;;;16.60;99.90;;;;;;5085240;28;20454;-78
2021/06/09 01:20:59;;;;;;;40.97;36.67;;;16.60;99.90;;;;;;5055405;28;21000;-78
2021/06/09 01:23:27;;;;;;;40.77;36.37;;;16.60;99.90;;;;;;5087601;28;20444;-78
2021/06/09 01:25:55;;;;;;;41.37;36.43;;;16.60;99.90;;;;;;5090774;28;20477;-78
2021/06/09 01:28:23;;;;;;;40.73;36.53;;;16.60;99.90;;;;;;5091406;28;20465;-78
2021/06/09 01:30:51;;;;;;;38.40;34.47;;;16.60;99.90;;;;;;5073684;28;20476;-78
2021/06/09 01:33:19;;;;;;;40.20;35.80;;;16.50;99.90;;;;;;5073288;28;20421;-78
2021/06/09 01:35:49;;;;;;;40.10;35.80;;;16.40;99.90;;;;;;5071152;28;20472;-78
2021/06/09 01:38:17;;;;;;;38.77;34.87;;;16.30;99.90;;;;;;5086582;28;20802;-78
2021/06/09 01:40:43;;;;;;;37.50;33.70;;;16.30;99.90;;;;;;5089683;28;20958;-78
2021/06/09 01:43:10;;;;;;;40.97;36.57;;;16.30;99.90;;;;;;5078289;28;20460;-77
2021/06/09 01:45:38;;;;;;;40.60;36.40;;;16.30;99.90;;;;;;5081813;28;20468;-79
2021/06/09 01:48:07;;;;;;;39.90;35.43;;;16.20;99.90;;;;;;5081586;28;20450;-78
2021/06/09 01:50:36;;;;;;;39.03;35.23;;;16.30;99.90;;;;;;5072309;28;20557;-77
2021/06/09 01:53:04;;;;;;;39.67;35.10;;;16.30;99.90;;;;;;5085954;28;20427;-77
2021/06/09 01:55:33;;;;;;;40.53;36.20;;;16.30;99.90;;;;;;5082209;28;20465;-79
2021/06/09 01:58:01;;;;;;;39.93;35.83;;;16.30;99.90;;;;;;5090942;28;20469;-78
2021/06/09 02:00:33;;;;;;;38.23;34.33;;;16.30;99.90;;;;;;5076427;28;20882;-78
2021/06/09 02:03:00;;;;;;;39.33;35.27;;;16.30;99.90;;;;;;5078505;28;20451;-78
2021/06/09 02:05:34;;;;;;;38.97;35.00;;;16.30;99.90;;;;;;5086462;28;20490;-78
2021/06/09 02:08:05;;;;;;;40.97;36.60;;;16.20;99.90;;;;;;5087902;28;20484;-78
2021/06/09 02:10:34;;;;;;;41.60;37.13;;;16.30;99.90;;;;;;5088027;28;20470;-78
2021/06/09 02:13:05;;;;;;;45.00;37.73;;;16.30;99.90;;;;;;5074632;28;20426;-78
2021/06/09 02:15:32;;;;;;;37.43;33.70;;;16.30;99.90;;;;;;5085422;28;20461;-78
2021/06/09 02:18:11;;;;;;;39.73;34.37;;;16.30;99.90;;;;;;5061940;28;20458;-78
2021/06/09 02:20:53;;;;;;;40.57;36.37;;;16.20;99.90;;;;;;5087843;28;20457;-78
2021/06/09 02:23:32;;;;;;;38.97;35.10;;;16.20;99.90;;;;;;5087473;28;20426;-78
2021/06/09 02:26:00;;;;;;;39.57;34.90;;;16.20;99.90;;;;;;5072062;28;20466;-78
2021/06/09 02:28:32;;;;;;;41.03;36.30;;;16.10;99.90;;;;;;5086108;28;20831;-78
2021/06/09 02:31:00;;;;;;;38.23;34.33;;;16.10;99.90;;;;;;5089321;28;20473;-78
2021/06/09 02:33:27;;;;;;;42.93;35.50;;;16.10;99.90;;;;;;5092852;28;20433;-78
2021/06/09 02:35:55;;;;;;;41.93;37.80;;;16.10;99.90;;;;;;5081425;28;20481;-78
2021/06/09 02:38:23;;;;;;;41.03;37.13;;;16.10;99.90;;;;;;5071493;28;20564;-78
2021/06/09 02:40:53;;;;;;;42.90;38.53;;;16.10;99.90;;;;;;5087508;28;20978;-78
2021/06/09 02:43:21;;;;;;;40.70;36.60;;;16.10;99.90;;;;;;5077593;28;20457;-78
2021/06/09 02:45:53;;;;;;;42.10;37.90;;;16.00;99.90;;;;;;5090161;28;20986;-78
2021/06/09 02:48:30;;;;;;;41.10;36.60;;;16.00;99.90;;;;;;5090937;28;20453;-78
2021/06/09 02:51:02;;;;;;;38.37;34.30;;;16.00;99.90;;;;;;5074011;28;20502;-78
2021/06/09 02:53:37;;;;;;;42.33;38.00;;;16.00;99.90;;;;;;5084205;28;20430;-78
2021/06/09 02:56:19;;;;;;;40.77;36.80;;;15.90;99.90;;;;;;5083895;28;20559;-78
2021/06/09 02:59:04;;;;;;;40.57;36.27;;;15.90;99.90;;;;;;5086545;28;20458;-79
2021/06/09 03:01:44;;;;;;;42.67;38.17;;;15.90;99.90;;;;;;5091220;28;20461;-78
2021/06/09 03:04:20;;;;;;;40.07;35.83;;;15.90;99.90;;;;;;5079359;28;20433;-78
2021/06/09 03:07:01;;;;;;;40.57;36.37;;;15.90;99.90;;;;;;5086247;28;20460;-78
2021/06/09 03:10:04;;;;;;;40.17;36.07;;;15.90;99.90;;;;;;5079479;28;20436;-79
2021/06/09 03:13:07;;;;;;;41.73;37.33;;;15.90;99.90;;;;;;5039664;28;20446;-79
2021/06/09 03:15:51;;;;;;;39.27;35.13;;;15.90;99.90;;;;;;5066515;28;20460;-78
2021/06/09 03:18:27;;;;;;;42.27;37.93;;;15.90;99.90;;;;;;5075587;28;20494;-77
2021/06/09 03:21:04;;;;;;;37.40;33.50;;;15.90;99.90;;;;;;5095031;28;20530;-78
2021/06/09 03:23:44;;;;;;;38.60;34.80;;;15.90;99.90;;;;;;5087779;28;20426;-78
2021/06/09 03:26:26;;;;;;;38.60;34.50;;;15.80;99.90;;;;;;5081337;28;20613;-78
2021/06/09 03:29:31;;;;;;;42.17;38.13;;;15.80;99.90;;;;;;5073599;28;20461;-78
2021/06/09 03:32:01;;;;;;;45.53;39.70;;;15.80;99.90;;;;;;5077949;28;20461;-78
2021/06/09 03:34:54;;;;;;;41.37;37.00;;;15.80;99.90;;;;;;5094445;28;20915;-78
2021/06/09 03:37:23;;;;;;;43.33;36.73;;;15.90;99.90;;;;;;5085445;28;20564;-78
2021/06/09 03:39:57;;;;;;;39.93;35.90;;;15.90;99.90;;;;;;5090168;28;20460;-78
2021/06/09 03:42:29;;;;;;;40.67;36.30;;;15.90;99.90;;;;;;5083956;28;20462;-78
2021/06/09 03:44:58;;;;;;;44.33;39.73;;;15.90;99.90;;;;;;5076320;28;21011;-78
2021/06/09 03:47:26;;;;;;;40.93;36.83;;;16.00;99.90;;;;;;5090818;28;20453;-78
2021/06/09 03:49:55;;;;;;;40.93;36.73;;;16.00;99.90;;;;;;5075440;28;20466;-78
2021/06/09 03:52:23;;;;;;;40.97;36.67;;;16.00;99.90;;;;;;5089404;28;20446;-78
2021/06/09 03:54:55;;;;;;;40.57;36.60;;;16.00;99.90;;;;;;5079314;28;20458;-78
2021/06/09 03:57:24;;;;;;;42.83;37.60;;;16.00;99.90;;;;;;5076146;28;20476;-78
2021/06/09 03:59:52;;;;;;;43.00;38.40;;;16.10;99.90;;;;;;5089049;28;20544;-78
2021/06/09 04:02:21;;;;;;;41.80;37.37;;;16.00;99.90;;;;;;5091130;28;20452;-78
2021/06/09 04:04:54;;;;;;;43.87;39.20;;;16.10;99.90;;;;;;5083364;28;20469;-78
2021/06/09 04:07:26;;;;;;;49.57;39.00;;;16.10;99.90;;;;;;5089815;28;20465;-78
2021/06/09 04:09:55;;;;;;;44.87;40.00;;;16.10;99.90;;;;;;5094130;28;20510;-78
2021/06/09 04:12:23;;;;;;;44.13;39.47;;;16.10;99.90;;;;;;5086548;28;20443;-78
2021/06/09 04:14:51;;;;;;;44.57;38.97;;;16.10;99.90;;;;;;5083429;28;20450;-77
2021/06/09 04:17:23;;;;;;;43.23;38.83;;;16.10;99.90;;;;;;5074602;28;20477;-78
2021/06/09 04:19:52;;;;;;;43.20;38.80;;;16.10;99.90;;;;;;5072602;28;20462;-77
2021/06/09 04:22:22;;;;;;;45.03;39.73;;;16.10;99.90;;;;;;5088473;28;20456;-78
2021/06/09 04:24:49;;;;;;;44.30;39.70;;;16.10;99.90;;;;;;5083161;28;20462;-78
2021/06/09 04:27:30;;;;;;;42.37;38.07;;;16.10;99.90;;;;;;5073977;28;20454;-78
2021/06/09 04:29:58;;;;;;;45.50;39.03;;;16.10;99.90;;;;;;5087054;28;20473;-78
2021/06/09 04:32:25;;;;;;;43.03;38.53;;;16.10;99.90;;;;;;5093125;28;20787;-78
2021/06/09 04:34:57;;;;;;;43.03;38.77;;;16.10;99.90;;;;;;5082856;28;20464;-78
2021/06/09 04:37:25;;;;;;;43.40;37.80;;;16.20;99.90;;;;;;5079983;28;20501;-78
2021/06/09 04:39:55;;;;;;;41.53;37.23;;;16.20;99.90;;;;;;5089422;28;20458;-78
2021/06/09 04:42:23;;;;;;;38.90;35.00;;;16.20;99.90;;;;;;5074287;28;20525;-78
2021/06/09 04:44:50;;;;;;;42.67;37.33;;;16.20;99.90;;;;;;5072842;28;20979;-78
2021/06/09 04:47:17;;;;;;;40.17;36.17;;;16.30;99.90;;;;;;5081806;28;20457;-77
2021/06/09 04:49:46;;;;;;;41.13;36.83;;;16.30;99.90;;;;;;5085280;28;20461;-78
2021/06/09 04:52:13;;;;;;;40.50;36.23;;;16.30;99.90;;;;;;5070542;28;20453;-78
2021/06/09 04:54:41;;;;;;;40.83;36.87;;;16.40;99.90;;;;;;5095511;28;20465;-78
2021/06/09 04:57:08;;;;;;;40.63;36.60;;;16.50;99.90;;;;;;5075159;28;20461;-78
2021/06/09 04:59:35;;;;;;;42.70;38.23;;;16.50;99.90;;;;;;5080314;28;20810;-78
2021/06/09 05:02:06;;;;;;;42.37;37.20;;;16.50;99.90;;;;;;5089001;28;20516;-79
2021/06/09 05:04:33;;;;;;;39.67;35.60;;;16.50;99.90;;;;;;5085382;28;21206;-79
2021/06/09 05:07:03;;;;;;;40.40;36.37;;;16.60;99.90;;;;;;5074886;28;20437;-78
2021/06/09 05:09:30;;;;;;;42.00;37.97;;;16.60;99.90;;;;;;5079420;28;20417;-78
2021/06/09 05:12:17;;;;;;;42.87;38.37;;;16.70;99.90;;;;;;5084536;28;20425;-78
2021/06/09 05:14:51;;;;;;;42.57;38.57;;;16.70;99.90;;;;;;5083915;28;20450;-78
2021/06/09 05:17:22;;;;;;;42.27;37.90;;;16.70;99.90;;;;;;5072946;28;20465;-78
2021/06/09 05:19:51;;;;;;;41.97;38.03;;;16.80;99.90;;;;;;5074054;28;20454;-78
2021/06/09 05:22:29;;;;;;;39.47;35.40;;;16.80;99.90;;;;;;5078907;28;20441;-79
2021/06/09 05:25:04;;;;;;;41.17;37.30;;;16.80;99.90;;;;;;5091439;28;20894;-78
2021/06/09 05:27:32;;;;;;;42.90;38.70;;;16.90;99.90;;;;;;5075549;28;20461;-78
2021/06/09 05:30:01;;;;;;;43.57;39.07;;;17.00;99.90;;;;;;5080934;28;20461;-79
2021/06/09 05:32:29;;;;;;;41.67;37.60;;;17.00;99.90;;;;;;5090060;28;20449;-79
2021/06/09 05:34:57;;;;;;;38.97;35.07;;;17.10;99.90;;;;;;5073157;28;20470;-78
2021/06/09 05:37:25;;;;;;;42.27;38.07;;;17.20;99.90;;;;;;5082896;28;20483;-79
2021/06/09 05:39:58;;;;;;;43.17;38.93;;;17.30;99.90;;;;;;5089434;28;20998;-79
2021/06/09 05:42:27;;;;;;;41.10;37.10;;;17.40;99.90;;;;;;5089481;28;20425;-78
2021/06/09 05:45:03;;;;;;;41.13;37.07;;;17.40;99.90;;;;;;5076379;28;20832;-78
2021/06/09 05:50:52;;;;;;;44.67;39.97;;;17.80;99.90;;;;;;5075609;28;20473;-73
2021/06/09 05:53:25;;;;;;;47.37;42.67;;;18.00;99.90;;;;;;5071751;28;20422;-73
2021/06/09 05:55:52;;;;;;;42.13;37.80;;;18.10;99.90;;;;;;5070488;28;20462;-73
2021/06/09 05:58:21;;;;;;;45.27;40.77;;;18.20;99.90;;;;;;5074389;28;20465;-72
2021/06/09 06:01:10;;;;;;;43.00;38.70;;;18.20;99.90;;;;;;5071950;28;20559;-73
2021/06/09 06:03:40;;;;;;;43.47;39.27;;;18.30;99.90;;;;;;5071155;28;20509;-73
2021/06/09 06:06:12;;;;;;;40.63;36.73;;;18.50;99.90;;;;;;5072220;28;20470;-73
2021/06/09 06:08:43;;;;;;;41.40;37.20;;;18.80;99.90;;;;;;5071786;28;20442;-73
2021/06/09 06:11:12;;;;;;;38.57;34.97;;;;;;;;;;5070271;28;20465;-73
2021/06/09 06:13:41;;;;;;;39.50;35.90;;;19.80;99.90;;;;;;5072246;28;20472;-73
2021/06/09 06:16:16;;;;;;;38.80;35.30;;;20.30;99.90;;;;;;5070265;28;20864;-73
2021/06/09 06:18:44;;;;;;;39.63;35.83;;;20.60;99.90;;;;;;5071322;28;20521;-73
2021/06/09 06:21:13;;;;;;;39.83;36.43;;;20.90;99.90;;;;;;5071673;28;20599;-73
2021/06/09 06:23:40;;;;;;;40.80;37.10;;;21.30;99.90;;;;;;5089331;28;20431;-73
2021/06/09 06:26:10;;;;;;;38.70;35.27;;;21.50;99.90;;;;;;5083474;28;20854;-74
2021/06/09 06:28:41;;;;;;;40.90;36.80;;;21.60;99.90;;;;;;5078439;28;20953;-74
2021/06/09 06:31:14;;;;;;;39.57;35.97;;;21.60;99.90;;;;;;5062580;28;20486;-73
2021/06/09 06:33:43;;;;;;;38.70;35.30;;;21.70;99.90;;;;;;5070945;28;20498;-73
2021/06/09 06:36:12;;;;;;;38.87;34.77;;;21.70;99.90;;;;;;5074535;28;20471;-73
2021/06/09 06:38:40;;;;;;;36.77;33.30;;;21.60;99.90;;;;;;5078757;28;20470;-73
2021/06/09 06:41:09;;;;;;;36.07;32.60;;;21.50;99.90;;;;;;5077940;28;20533;-73
2021/06/09 06:43:37;;;;;;;37.93;34.57;;;21.40;99.90;;;;;;5076774;28;20496;-73
2021/06/09 06:46:05;;;;;;;39.77;35.97;;;21.40;99.90;;;;;;5078515;28;20992;-73
2021/06/09 06:48:34;;;;;;;38.37;35.07;;;21.40;99.90;;;;;;5075712;28;20547;-73
2021/06/09 06:51:04;;;;;;;37.63;34.23;;;21.60;99.90;;;;;;5083383;28;20466;-73
2021/06/09 06:53:32;;;;;;;36.53;33.03;;;21.60;99.90;;;;;;5090483;28;20791;-73
2021/06/09 06:56:01;;;;;;;37.73;34.30;;;21.70;99.90;;;;;;5086963;28;20469;-73
2021/06/09 06:58:32;;;;;;;39.37;35.67;;;21.70;99.90;;;;;;5083335;28;20563;-73
2021/06/09 07:01:00;;;;;;;37.97;34.57;;;21.80;99.90;;;;;;5078161;28;20467;-73
2021/06/09 07:03:33;;;;;;;35.97;32.67;;;21.90;99.90;;;;;;5091830;28;20415;-73
2021/06/09 07:06:00;;;;;;;36.23;32.67;;;21.90;99.90;;;;;;5082289;28;20832;-73
2021/06/09 07:08:28;;;;;;;37.83;34.43;;;22.00;99.90;;;;;;5081010;28;20547;-73
2021/06/09 07:10:59;;;;;;;34.57;31.40;;;21.90;99.90;;;;;;5082613;28;20467;-73
2021/06/09 07:13:30;;;;;;;39.17;35.73;;;21.90;99.90;;;;;;5087175;28;20467;-73
2021/06/09 07:16:01;;;;;;;36.03;32.90;;;21.90;99.90;;;;;;5082095;28;21004;-73
2021/06/09 07:18:31;;;;;;;37.97;34.50;;;22.00;99.90;;;;;;5087746;28;20464;-73
2021/06/09 07:21:01;;;;;;;39.00;35.40;;;22.10;99.90;;;;;;5086728;28;21045;-73
2021/06/09 07:23:28;;;;;;;38.67;35.17;;;22.10;99.90;;;;;;5078429;28;20439;-73
2021/06/09 07:25:55;;;;;;;38.87;35.37;;;22.10;99.90;;;;;;5075265;28;20549;-73
2021/06/09 07:28:25;;;;;;;39.70;36.20;;;22.00;99.90;;;;;;5086285;28;20467;-73
2021/06/09 07:30:53;;;;;;;39.50;35.97;;;22.10;99.90;;;;;;5079048;28;20467;-74
2021/06/09 07:33:24;;;;;;;39.20;35.40;;;22.10;99.90;;;;;;5078918;28;20430;-73
2021/06/09 07:35:52;;;;;;;36.93;33.53;;;22.30;99.90;;;;;;5087665;28;20479;-73
2021/06/09 07:38:27;;;;;;;37.47;33.90;;;22.40;99.90;;;;;;5076611;28;20462;-73
2021/06/09 07:41:01;;;;;;;38.80;35.27;;;22.50;99.90;;;;;;5086818;28;20466;-73
2021/06/09 07:43:33;;;;;;;35.17;31.93;;;22.60;99.90;;;;;;5073571;28;20436;-73
2021/06/09 07:46:01;;;;;;;37.17;33.57;;;22.50;99.90;;;;;;5092809;28;20923;-73
2021/06/09 07:48:30;;;;;;;37.63;34.07;;;22.70;99.90;;;;;;5075885;28;20465;-73
2021/06/09 07:51:02;;;;;;;37.17;33.73;;;22.90;99.90;;;;;;5080191;28;20480;-73
2021/06/09 07:53:31;;;;;;;38.50;34.97;;;22.90;99.90;;;;;;5080079;28;20435;-73
2021/06/09 07:56:00;;;;;;;37.13;33.63;;;22.90;99.90;;;;;;5084408;28;20475;-73
2021/06/09 07:58:32;;;;;;;36.07;32.67;;;22.90;99.90;;;;;;5084822;28;20503;-73
2021/06/09 08:01:02;;;;;;;36.60;33.10;;;23.00;99.90;;;;;;5078472;28;20473;-73
2021/06/09 08:03:31;;;;;;;36.30;33.00;;;23.00;99.90;;;;;;5089044;28;20469;-73
2021/06/09 08:06:01;;;;;;;36.30;33.10;;;23.30;98.30;;;;;;5080302;28;20487;-73
2021/06/09 08:08:32;;;;;;;36.87;33.57;;;23.30;96.40;;;;;;5074162;28;21041;-73
2021/06/09 08:11:02;;;;;;;35.73;32.57;;;23.20;98.00;;;;;;5082521;28;20475;-73
2021/06/09 08:13:29;;;;;;;35.70;32.37;;;23.30;96.70;;;;;;5094368;28;20949;-73
2021/06/09 08:15:58;;;;;;;33.43;30.43;;;23.40;96.40;;;;;;5085390;28;20488;-73
2021/06/09 08:18:25;;;;;;;32.10;29.10;;;23.40;97.00;;;;;;5092356;28;20960;-73
2021/06/09 08:21:20;;;;;;;30.03;27.33;;;23.50;97.80;;;;;;5089958;28;20491;-73
2021/06/09 08:23:50;;;;;;;30.30;27.53;;;23.50;94.60;;;;;;5080992;28;20528;-73
2021/06/09 08:26:19;;;;;;;32.17;29.47;;;23.70;94.20;;;;;;5070355;28;20500;-73
2021/06/09 08:28:50;;;;;;;33.70;30.80;;;23.80;93.90;;;;;;5083359;28;20498;-73
2021/06/09 08:31:23;;;;;;;29.07;26.27;;;23.90;92.70;;;;;;5089181;28;20526;-73
2021/06/09 08:33:53;;;;;;;30.20;27.57;;;23.90;93.00;;;;;;5081820;28;20532;-74
2021/06/09 08:36:23;;;;;;;32.20;29.30;;;24.00;92.70;;;;;;5075962;28;21021;-74
2021/06/09 08:38:54;;;;;;;33.37;30.10;;;24.00;93.50;;;;;;5090559;28;20464;-75
2021/06/09 08:41:29;;;;;;;32.10;29.13;;;24.00;93.40;;;;;;5079523;28;20466;-73
2021/06/09 08:43:58;;;;;;;33.00;30.00;;;23.90;92.60;;;;;;5081282;28;20430;-74
2021/06/09 08:46:27;;;;;;;33.13;30.07;;;24.10;90.50;;;;;;5060193;28;20874;-77
2021/06/09 08:48:56;;;;;;;32.43;29.47;;;24.20;91.80;;;;;;5077811;28;20473;-75
2021/06/09 08:51:24;;;;;;;30.37;27.63;;;24.30;91.90;;;;;;5084237;28;20879;-75
2021/06/09 08:53:53;;;;;;;32.00;29.20;;;24.30;92.70;;;;;;5059024;28;20979;-76
2021/06/09 08:56:24;;;;;;;32.57;29.57;;;24.40;92.40;;;;;;5076827;28;21022;-75
2021/06/09 08:58:52;;;;;;;33.20;30.30;;;24.50;90.50;;;;;;5084164;28;20488;-75
2021/06/09 09:01:21;;;;;;;30.93;28.23;;;24.50;90.40;;;;;;5079730;28;20517;-75
2021/06/09 09:03:52;;;;;;;28.33;25.83;;;24.50;90.70;;;;;;5081624;28;20433;-75
2021/06/09 09:06:24;;;;;;;31.80;28.93;;;24.70;86.80;;;;;;5077782;28;20541;-75
2021/06/09 09:08:54;;;;;;;29.30;26.53;;;24.70;90.00;;;;;;5084407;28;20450;-75
2021/06/09 09:11:22;;;;;;;30.80;28.10;;;24.70;87.60;;;;;;5087478;28;20561;-74
2021/06/09 09:13:49;;;;;;;26.93;24.10;;;24.70;87.90;;;;;;5091004;28;20433;-74
2021/06/09 09:16:17;;;;;;;27.20;24.60;;;24.90;84.30;;;;;;5081189;28;20465;-72
2021/06/09 09:18:46;;;;;;;21.70;19.53;;;25.00;83.20;;;;;;5083013;28;21019;-73
2021/06/09 09:21:41;;;;;;;20.20;18.20;;;25.20;75.80;;;;;;5082122;28;20480;-73
2021/06/09 09:24:10;;;;;;;22.60;20.50;;;25.20;79.40;;;;;;5077187;28;20438;-75
2021/06/09 09:26:50;;;;;;;23.03;21.00;;;25.10;76.20;;;;;;5087118;28;21012;-75
2021/06/09 09:29:21;;;;;;;18.77;17.10;;;25.10;79.00;;;;;;5082320;28;20559;-74
2021/06/09 09:31:55;;;;;;;20.20;18.40;;;25.30;73.40;;;;;;5092836;28;20417;-72
2021/06/09 09:35:03;;;;;;;23.13;21.13;;;25.40;77.10;;;;;;5085518;28;20430;-74
2021/06/09 09:37:30;;;;;;;24.70;22.50;;;25.40;79.90;;;;;;5072999;28;20466;-75
2021/06/09 09:40:17;;;;;;;27.93;25.40;;;25.40;81.70;;;;;;5070889;28;20458;-75
2021/06/09 09:42:50;;;;;;;27.43;24.93;;;25.30;82.20;;;;;;5088524;28;20431;-74
2021/06/09 09:45:29;;;;;;;25.93;23.70;;;25.30;83.80;;;;;;5088647;28;20530;-74
2021/06/09 09:48:15;;;;;;;28.63;26.20;;;25.30;81.40;;;;;;5083123;28;20536;-74
2021/06/09 09:50:42;;;;;;;29.63;27.03;;;25.20;84.50;;;;;;5079921;28;21013;-75
2021/06/09 09:53:19;;;;;;;28.03;25.40;;;25.10;84.50;;;;;;5087923;28;20916;-74
2021/06/09 09:56:00;;;;;;;28.27;25.87;;;24.90;85.70;;;;;;5071996;28;20543;-75
2021/06/09 09:58:28;;;;;;;30.77;28.07;;;25.10;85.00;;;;;;5082551;28;20557;-75
2021/06/09 10:01:15;;;;;;;27.50;25.03;;;25.10;85.70;;;;;;5089668;28;20464;-74
2021/06/09 10:03:48;;;;;;;27.47;24.87;;;25.10;81.20;;;;;;5071579;28;20437;-72
2021/06/09 10:06:21;;;;;;;25.50;23.30;;;25.20;76.00;;;;;;5082345;28;20489;-79
2021/06/09 10:08:52;;;;;;;31.70;28.90;;;25.30;74.90;;;;;;5093139;28;20452;-81
2021/06/09 10:11:21;;;;;;;28.60;26.00;;;25.20;75.50;;;;;;5085164;28;20470;-79
2021/06/09 10:13:49;;;;;;;27.80;25.17;;;25.30;74.90;;;;;;5080033;28;20436;-82
2021/06/09 10:16:25;;;;;;;29.83;27.07;;;25.30;76.90;;;;;;5085062;28;20457;-80
2021/06/09 10:19:15;;;;;;;28.10;25.90;;;25.20;80.00;;;;;;5075713;28;20551;-80
2021/06/09 10:21:54;;;;;;;28.03;25.60;;;25.10;77.70;;;;;;5076466;28;20536;-80
2021/06/09 10:24:23;;;;;;;28.60;26.20;;;25.10;80.40;;;;;;5082974;28;20494;-79
2021/06/09 10:26:54;;;;;;;27.53;25.13;;;25.10;84.00;;;;;;5080178;28;20426;-81
2021/06/09 10:29:23;;;;;;;26.17;24.03;;;25.00;83.60;;;;;;5070622;28;20501;-80
2021/06/09 10:31:59;;;;;;;25.03;22.57;;;24.90;79.90;;;;;;5073658;28;20446;-81
2021/06/09 10:34:29;;;;;;;25.53;23.13;;;25.00;80.00;;;;;;5081013;28;20922;-81
2021/06/09 10:36:58;;;;;;;26.73;24.33;;;25.20;75.70;;;;;;5082345;28;20433;-81
2021/06/09 10:39:30;;;;;;;28.30;25.67;;;25.40;76.70;;;;;;5080324;28;20458;-81
2021/06/09 10:42:02;;;;;;;25.43;23.10;;;25.40;76.10;;;;;;5071123;28;20780;-81
2021/06/09 10:44:36;;;;;;;26.40;23.77;;;25.70;75.60;;;;;;5060125;28;20533;-80
2021/06/09 10:47:04;;;;;;;25.23;22.93;;;25.70;75.90;;;;;;5070518;28;20422;-79
2021/06/09 10:49:35;;;;;;;24.10;22.10;;;25.80;69.50;;;;;;5069705;28;20429;-79
2021/06/09 10:52:03;;;;;;;23.67;21.37;;;25.80;70.80;;;;;;5080162;28;20453;-81
2021/06/09 10:54:34;;;;;;;24.77;22.43;;;25.90;70.60;;;;;;5071114;28;20434;-83
2021/06/09 10:57:02;;;;;;;25.97;23.57;;;26.10;69.40;;;;;;5071501;28;20962;-80
2021/06/09 10:59:31;;;;;;;26.83;24.30;;;26.30;74.20;;;;;;5071014;28;20469;-81
2021/06/09 11:02:09;;;;;;;23.77;21.40;;;26.30;79.20;;;;;;5071837;28;20900;-79
2021/06/09 11:04:46;;;;;;;23.40;21.40;;;26.10;71.10;;;;;;5070837;28;20857;-80
2021/06/09 11:07:27;;;;;;;28.33;25.00;;;25.90;74.90;;;;;;5069010;28;20808;-79
2021/06/09 11:09:59;;;;;;;30.67;23.33;;;25.70;83.80;;;;;;5069519;28;20462;-79
2021/06/09 11:12:38;;;;;;;26.33;23.87;;;25.70;80.70;;;;;;5056726;28;20786;-80
2021/06/09 11:15:20;;;;;;;24.73;22.50;;;25.60;79.40;;;;;;5085367;28;20994;-80
2021/06/09 11:17:52;;;;;;;20.77;18.97;;;25.60;77.70;;;;;;5090653;28;20446;-80
2021/06/09 11:20:40;;;;;;;24.47;22.37;;;25.60;72.00;;;;;;5073434;28;20477;-80
2021/06/09 11:23:10;;;;;;;26.20;23.80;;;25.60;77.40;;;;;;5091140;28;20453;-79
2021/06/09 11:25:42;;;;;;;24.30;22.07;;;25.60;82.90;;;;;;5073474;28;20450;-81
2021/06/09 11:28:19;;;;;;;23.30;21.00;;;25.60;78.80;;;;;;5073305;28;20457;-79
2021/06/09 11:31:16;;;;;;;34.50;22.23;;;25.60;75.80;;;;;;5075122;28;20829;-82
2021/06/09 11:33:55;;;;;;;25.63;23.20;;;25.40;79.10;;;;;;5072217;28;20445;-80
2021/06/09 11:36:22;;;;;;;25.20;22.30;;;25.30;84.20;;;;;;5082053;28;20886;-81
2021/06/09 11:39:16;;;;;;;20.63;18.63;;;25.20;83.60;;;;;;5094696;28;20457;-81
2021/06/09 11:41:48;;;;;;;23.47;21.20;;;25.20;79.50;;;;;;5091392;28;20464;-81
2021/06/09 11:44:39;;;;;;;22.80;20.77;;;25.40;84.40;;;;;;5106045;28;20450;-78
2021/06/09 11:47:24;;;;;;;21.40;19.60;;;25.30;81.50;;;;;;5072908;28;20440;-80
2021/06/09 11:50:15;;;;;;;28.50;21.63;;;25.30;78.70;;;;;;5090318;28;20461;-81
2021/06/09 11:53:19;;;;;;;21.90;20.03;;;25.30;78.80;;;;;;5090013;28;20533;-79
2021/06/09 11:56:14;;;;;;;21.73;19.83;;;25.40;75.50;;;;;;5070921;28;21019;-83
2021/06/09 11:58:45;;;;;;;24.20;21.87;;;25.40;84.40;;;;;;5070474;28;20460;-81
2021/06/09 12:01:14;;;;;;;23.33;21.03;;;25.40;83.30;;;;;;5074092;28;20847;-80
2021/06/09 12:03:43;;;;;;;20.83;19.07;;;25.60;80.50;;;;;;5074581;28;20513;-80
2021/06/09 12:06:11;;;;;;;21.63;19.57;;;25.70;78.30;;;;;;5074772;28;20458;-80
2021/06/09 12:08:38;;;;;;;20.70;18.80;;;25.90;78.70;;;;;;5089041;28;20442;-80
2021/06/09 12:11:05;;;;;;;21.27;19.40;;;26.00;75.90;;;;;;5089643;28;20447;-79
2021/06/09 12:13:35;;;;;;;18.93;17.10;;;26.20;68.40;;;;;;5074555;28;20504;-80
2021/06/09 12:16:08;;;;;;;17.07;15.43;;;26.20;73.10;;;;;;5088857;28;20461;-79
2021/06/09 12:18:35;;;;;;;14.77;13.70;;;26.10;69.50;;;;;;5073835;28;20810;-80
2021/06/09 12:21:08;;;;;;;15.00;13.80;;;26.10;69.40;;;;;;5073269;28;20481;-81
2021/06/09 12:23:37;;;;;;;17.53;16.13;;;26.00;67.00;;;;;;5056485;28;20534;-80
2021/06/09 12:26:11;;;;;;;14.40;13.17;;;26.00;66.90;;;;;;5073594;28;20470;-82
2021/06/09 12:28:38;;;;;;;18.43;14.53;;;26.10;61.90;;;;;;5072566;28;20547;-82
2021/06/09 12:31:11;;;;;;;13.50;12.30;;;26.30;64.20;;;;;;5085782;28;20844;-80
2021/06/09 12:33:43;;;;;;;16.57;15.03;;;26.50;62.40;;;;;;5094385;28;21252;-80
2021/06/09 12:36:14;;;;;;;16.73;15.30;;;26.60;70.50;;;;;;5087828;28;20462;-79
2021/06/09 12:38:43;;;;;;;16.13;14.90;;;26.60;67.80;;;;;;5073221;28;20454;-79
2021/06/09 12:41:11;;;;;;;17.20;15.57;;;26.50;65.30;;;;;;5072250;28;20825;-80
2021/06/09 12:43:44;;;;;;;16.53;15.20;;;26.30;70.80;;;;;;5089485;28;20445;-80
2021/06/09 12:46:13;;;;;;;15.50;14.20;;;26.20;70.80;;;;;;5087883;28;20495;-79
2021/06/09 12:48:40;;;;;;;16.03;14.73;;;26.10;75.70;;;;;;5072180;28;20545;-80
2021/06/09 12:51:07;;;;;;;17.10;15.50;;;26.00;76.00;;;;;;5089210;28;20894;-80
2021/06/09 12:53:34;;;;;;;16.03;14.13;;;26.00;69.40;;;;;;5073759;28;20458;-79
2021/06/09 12:56:07;;;;;;;17.93;14.10;;;26.10;75.00;;;;;;5071671;28;21011;-79